Time;durP1;ratioP1;P1;durP2;ratioP2;P2;SDS_P1;SDS_P2;PMS_P1;PMS_P2;Temp;Humidity;BMP_temperature;BMP_pressure;BME280_temperature;BME280_humidity;BME280_pressure;Samples;Min_cycle;Max_cycle;Signal;HPM_P1;HPM_P2
2023/10/12 00:02:09;;;;;;;1.10;1.10;;;;;;;17.08;68.49;95620.94;4416502;32;20247;-58
2023/10/12 00:04:53;;;;;;;1.70;1.60;;;;;;;17.25;68.02;95622.72;4409432;32;20219;-59
2023/10/12 00:12:47;;;;;;;0.60;0.60;;;;;;;17.16;68.00;95631.59;4406823;32;20192;-58
2023/10/12 00:17:47;;;;;;;3.17;1.33;;;;;;;17.21;69.16;95632.53;4413224;32;20192;-63
2023/10/12 00:20:35;;;;;;;1.10;1.10;;;;;;;17.22;68.66;95618.00;4408010;32;20218;-63
2023/10/12 00:23:14;;;;;;;0.80;0.80;;;;;;;17.31;68.57;95613.34;4370775;32;20298;-63
2023/10/12 00:26:00;;;;;;;2.60;1.43;;;;;;;17.29;67.43;95616.34;4378521;32;20223;-63
2023/10/12 00:28:38;;;;;;;0.70;0.70;;;;;;;17.28;68.51;95624.72;4414892;32;20176;-63
2023/10/12 00:31:12;;;;;;;5.50;1.10;;;;;;;17.25;68.14;95625.41;4416581;32;20267;-63
2023/10/12 00:33:38;;;;;;;0.70;0.70;;;;;;;17.20;68.60;95620.22;4373260;32;20171;-63
2023/10/12 00:36:11;;;;;;;0.97;0.97;;;;;;;17.17;67.59;95622.44;4413627;32;20271;-63
2023/10/12 00:38:39;;;;;;;0.73;0.73;;;;;;;17.11;67.62;95617.59;4416062;32;20194;-63
2023/10/12 00:41:07;;;;;;;1.23;1.23;;;;;;;17.07;69.28;95601.38;4415976;32;20274;-63
2023/10/12 00:43:49;;;;;;;0.40;0.40;;;;;;;17.10;69.17;95600.72;4415515;32;20196;-63
2023/10/12 00:46:21;;;;;;;0.80;0.80;;;;;;;17.09;68.08;95596.47;4405467;32;20180;-59
2023/10/12 00:48:49;;;;;;;1.70;1.60;;;;;;;17.04;68.63;95595.91;4400023;32;20169;-61
2023/10/12 00:51:17;;;;;;;1.03;1.03;;;;;;;17.22;70.15;95591.97;4399993;32;20199;-62
2023/10/12 00:53:55;;;;;;;1.03;1.03;;;;;;;17.17;69.47;95586.81;4388416;32;20176;-63
2023/10/12 00:56:24;;;;;;;1.20;1.10;;;;;;;17.14;68.43;95582.09;4408801;32;20217;-63
2023/10/12 00:58:55;;;;;;;1.37;1.30;;;;;;;17.24;69.08;95588.97;4387918;32;20245;-63
2023/10/12 01:01:24;;;;;;;3.33;0.93;;;;;;;17.21;69.11;95587.72;4399553;32;20238;-63
2023/10/12 01:03:52;;;;;;;0.37;0.37;;;;;;;17.20;68.80;95607.59;4401921;32;20200;-63
2023/10/12 01:06:29;;;;;;;0.83;0.83;;;;;;;17.13;69.10;95597.41;4415292;32;20210;-63
2023/10/12 01:09:04;;;;;;;1.50;1.37;;;;;;;17.08;69.06;95594.91;4403065;32;20176;-63
2023/10/12 01:11:34;;;;;;;1.17;1.17;;;;;;;17.12;69.53;95593.13;4415978;32;20219;-63
2023/10/12 01:16:54;;;;;;;0.90;0.90;;;;;;;17.02;69.31;95585.50;4414125;32;20188;-63
2023/10/12 01:19:22;;;;;;;1.33;1.23;;;;;;;16.97;70.21;95583.03;4414822;32;20220;-63
2023/10/12 01:21:49;;;;;;;1.07;1.07;;;;;;;17.03;69.08;95581.72;4415967;32;20180;-62
2023/10/12 01:24:15;;;;;;;1.37;1.27;;;;;;;16.90;70.08;95571.25;4415984;32;20227;-62
2023/10/12 01:26:48;;;;;;;6.90;1.67;;;;;;;16.80;67.74;95575.09;4408687;32;20196;-63
2023/10/12 01:29:21;;;;;;;0.40;0.40;;;;;;;16.84;69.61;95573.31;4400953;32;20207;-59
2023/10/12 01:32:08;;;;;;;0.97;0.97;;;;;;;16.93;71.01;95575.94;4413781;32;20209;-62
2023/10/12 01:34:36;;;;;;;0.87;0.87;;;;;;;16.88;70.64;95574.25;4403594;32;20322;-63
2023/10/12 01:37:21;;;;;;;1.53;1.53;;;;;;;16.90;70.61;95566.66;4408470;32;20180;-63
2023/10/12 01:40:44;;;;;;;0.97;0.97;;;;;;;16.98;70.77;95573.88;4411265;32;20203;-61
2023/10/12 01:48:33;;;;;;;1.13;1.13;;;;;;;16.96;71.08;95570.72;4405808;32;20176;-62
2023/10/12 01:50:46;;;;;;;1.23;1.13;;;;;;;16.89;69.75;95572.34;4391358;32;20228;-61
2023/10/12 01:53:26;;;;;;;1.60;1.50;;;;;;;16.92;71.11;95577.06;4395112;32;20199;-63
2023/10/12 01:55:59;;;;;;;4.00;1.57;;;;;;;16.84;69.72;95578.69;4397408;32;20195;-63
2023/10/12 01:58:35;;;;;;;0.73;0.73;;;;;;;16.71;71.00;95577.84;4407820;32;20262;-63
2023/10/12 02:01:18;;;;;;;0.83;0.83;;;;;;;16.74;70.86;95579.09;4418898;32;20256;-63
2023/10/12 02:03:44;;;;;;;0.77;0.77;;;;;;;16.73;71.01;95575.63;4417200;32;20180;-60
2023/10/12 02:06:14;;;;;;;0.87;0.87;;;;;;;16.69;71.02;95580.06;4411566;32;20192;-63
2023/10/12 02:08:45;;;;;;;0.93;0.93;;;;;;;16.66;71.29;95577.22;4412685;32;20180;-63
2023/10/12 02:13:51;;;;;;;2.93;1.33;;;;;;;16.49;70.89;95581.56;4414888;32;20177;-62
2023/10/12 02:16:54;;;;;;;6.33;1.30;;;;;;;16.50;71.71;95580.47;4411606;32;20248;-62
2023/10/12 02:19:19;;;;;;;0.80;0.77;;;;;;;16.72;71.96;95571.38;4390376;32;20195;-63
2023/10/12 02:21:46;;;;;;;0.80;0.80;;;;;;;16.72;71.51;95571.38;4415630;32;20183;-63
2023/10/12 02:24:14;;;;;;;7.10;2.20;;;;;;;16.67;71.45;95571.56;4420178;32;20172;-63
2023/10/12 02:26:52;;;;;;;0.93;0.93;;;;;;;16.62;72.29;95566.38;4418119;32;20198;-63
2023/10/12 02:29:19;;;;;;;0.73;0.73;;;;;;;16.73;71.94;95577.50;4403840;32;20183;-63
2023/10/12 02:34:20;;;;;;;1.27;1.17;;;;;;;16.76;70.89;95571.50;4418027;32;20184;-62
2023/10/12 02:39:43;;;;;;;0.90;0.90;;;;;;;16.63;70.78;95567.13;4407306;32;20188;-63
2023/10/12 02:47:40;;;;;;;0.83;0.83;;;;;;;16.74;70.96;95576.41;4406646;32;20197;-63
2023/10/12 02:52:36;;;;;;;0.47;0.47;;;;;;;16.72;71.31;95571.38;4404708;32;20283;-63
2023/10/12 02:55:19;;;;;;;7.00;2.90;;;;;;;16.69;70.23;95573.91;4410979;32;20192;-63
2023/10/12 03:00:54;;;;;;;0.50;0.50;;;;;;;16.59;70.97;95560.88;4327691;32;20197;-63
2023/10/12 03:03:38;;;;;;;0.83;0.83;;;;;;;16.55;70.70;95571.47;4364705;32;20184;-62
2023/10/12 03:06:12;;;;;;;1.47;1.03;;;;;;;16.69;70.88;95568.56;4407982;32;20218;-63
2023/10/12 03:09:13;;;;;;;1.40;1.30;;;;;;;16.69;70.82;95576.59;4400636;32;20180;-64
2023/10/12 03:11:42;;;;;;;1.73;1.47;;;;;;;16.71;70.73;95574.38;4411993;32;20207;-63
2023/10/12 03:14:18;;;;;;;0.93;0.87;;;;;;;16.58;68.79;95567.34;4400629;32;20192;-63
2023/10/12 03:16:51;;;;;;;1.00;1.00;;;;;;;16.66;71.81;95569.19;4411793;32;20215;-63
2023/10/12 03:19:26;;;;;;;1.40;1.10;;;;;;;16.49;72.07;95584.25;4402191;32;20211;-62
2023/10/12 03:21:52;;;;;;;2.50;1.40;;;;;;;16.30;71.34;95570.50;4412569;32;20193;-62
2023/10/12 03:24:38;;;;;;;0.90;0.90;;;;;;;16.51;71.73;95581.25;4417442;32;20180;-62
2023/10/12 03:27:13;;;;;;;5.40;1.23;;;;;;;16.43;69.88;95580.19;4415819;32;20184;-63
2023/10/12 03:30:17;;;;;;;0.63;0.63;;;;;;;16.55;72.14;95586.75;4399742;32;20194;-63
2023/10/12 03:32:33;;;;;;;2.47;1.13;;;;;;;16.52;71.40;95579.34;4403549;32;20229;-63
2023/10/12 03:35:00;;;;;;;1.27;1.17;;;;;;;16.46;71.66;95578.75;4417177;32;20181;-63
2023/10/12 03:37:45;;;;;;;0.87;0.87;;;;;;;16.55;70.80;95576.03;4402908;32;20239;-63
2023/10/12 03:42:57;;;;;;;3.30;1.30;;;;;;;16.56;71.09;95577.59;4397617;32;20254;-63
2023/10/12 03:45:24;;;;;;;1.93;1.30;;;;;;;16.59;71.03;95567.03;4408048;32;20188;-64
2023/10/12 03:48:33;;;;;;;0.90;0.90;;;;;;;16.61;71.14;95569.38;4415651;32;20198;-63
2023/10/12 03:51:11;;;;;;;1.50;1.13;;;;;;;16.62;69.40;95563.69;4401288;32;20214;-63
2023/10/12 03:53:45;;;;;;;1.73;1.63;;;;;;;16.59;71.60;95566.25;4415827;32;20180;-63
2023/10/12 03:56:16;;;;;;;1.00;1.00;;;;;;;16.57;70.82;95563.09;4406301;32;20225;-63
2023/10/12 03:58:57;;;;;;;0.70;0.70;;;;;;;16.63;71.66;95569.81;4414458;32;20210;-64
2023/10/12 04:01:30;;;;;;;1.23;1.23;;;;;;;16.66;69.00;95558.47;4412666;32;20206;-63
2023/10/12 04:09:43;;;;;;;1.10;1.10;;;;;;;16.75;70.52;95564.59;4416483;32;20176;-63
2023/10/12 04:14:55;;;;;;;1.20;1.10;;;;;;;16.82;71.17;95564.84;4413295;32;20200;-63
2023/10/12 04:20:40;;;;;;;1.20;1.20;;;;;;;16.89;70.01;95567.00;4416590;32;20195;-63
2023/10/12 04:25:33;;;;;;;0.50;0.50;;;;;;;16.94;69.96;95566.81;4410260;32;20208;-62
2023/10/12 04:41:38;;;;;;;0.80;0.80;;;;;;;17.07;69.13;95568.41;4416274;32;20198;-63
2023/10/12 04:44:25;;;;;;;0.40;0.40;;;;;;;17.04;68.83;95571.78;4413212;32;20188;-63
2023/10/12 04:47:04;;;;;;;0.70;0.70;;;;;;;17.06;69.77;95573.00;4407428;32;20250;-63
2023/10/12 04:49:57;;;;;;;0.90;0.90;;;;;;;17.01;69.21;95572.44;4411791;32;20181;-63
2023/10/12 04:52:32;;;;;;;0.77;0.77;;;;;;;16.98;67.58;95562.38;4411895;32;20180;-63
2023/10/12 04:58:09;;;;;;;0.97;0.97;;;;;;;17.00;67.39;95571.66;4382507;32;20244;-63
2023/10/12 05:00:48;;;;;;;0.40;0.40;;;;;;;17.03;69.10;95565.63;4374183;32;20341;-63
2023/10/12 05:03:26;;;;;;;0.97;0.97;;;;;;;17.01;69.76;95573.22;4378367;32;20200;-63
2023/10/12 05:06:03;;;;;;;0.70;0.70;;;;;;;17.00;69.23;95576.22;4376923;32;20172;-63
2023/10/12 05:08:31;;;;;;;1.57;1.13;;;;;;;16.96;69.56;95570.72;4381331;32;20198;-63
2023/10/12 05:10:58;;;;;;;1.43;1.07;;;;;;;17.01;69.53;95573.22;4404791;32;20180;-63
2023/10/12 05:13:25;;;;;;;0.93;0.87;;;;;;;16.97;69.73;95574.97;4388147;32;20175;-63
2023/10/12 05:15:56;;;;;;;0.47;0.47;;;;;;;17.00;68.68;95579.69;4392846;32;20199;-63
2023/10/12 05:18:25;;;;;;;1.53;1.30;;;;;;;16.99;67.23;95582.69;4393167;32;20242;-62
2023/10/12 05:20:52;;;;;;;0.90;0.90;;;;;;;17.05;70.17;95578.69;4407539;32;20223;-62
2023/10/12 05:23:18;;;;;;;1.63;0.90;;;;;;;17.06;69.30;95580.25;4412281;32;20183;-60
2023/10/12 05:25:48;;;;;;;1.23;1.13;;;;;;;17.06;68.74;95582.94;4413201;32;20217;-63
2023/10/12 05:28:27;;;;;;;3.20;0.90;;;;;;;17.02;68.86;95579.38;4397265;32;20188;-63
2023/10/12 05:31:13;;;;;;;0.70;0.70;;;;;;;16.98;68.13;95579.22;4414841;32;20187;-63
2023/10/12 05:33:43;;;;;;;1.33;1.27;;;;;;;17.05;68.53;95584.03;4395983;32;20224;-63
2023/10/12 05:36:14;;;;;;;1.03;1.03;;;;;;;17.08;68.76;95586.84;4397961;32;20221;-63
2023/10/12 05:38:52;;;;;;;1.27;1.20;;;;;;;17.06;69.82;95591.75;4414136;32;20176;-63
2023/10/12 05:41:38;;;;;;;0.70;0.70;;;;;;;17.16;69.65;95586.00;4404397;32;20176;-62
2023/10/12 05:44:08;;;;;;;0.70;0.70;;;;;;;17.13;69.90;95592.03;4395526;32;20233;-63
2023/10/12 05:46:36;;;;;;;1.13;1.13;;;;;;;17.17;68.92;95598.31;4400926;32;20234;-63
2023/10/12 05:49:11;;;;;;;2.53;1.20;;;;;;;17.18;68.57;95591.06;4412518;32;20242;-63
2023/10/12 05:51:47;;;;;;;1.53;1.43;;;;;;;17.14;67.42;95588.25;4414629;32;20287;-63
2023/10/12 05:54:20;;;;;;;4.73;2.17;;;;;;;17.22;69.60;95596.56;4410632;32;20256;-63
2023/10/12 05:56:49;;;;;;;3.30;0.97;;;;;;;17.18;67.82;95607.16;4412316;32;20176;-60
2023/10/12 05:59:18;;;;;;;1.43;1.33;;;;;;;17.22;67.23;95612.63;4415628;32;20195;-62
2023/10/12 06:01:52;;;;;;;2.53;1.23;;;;;;;17.27;68.67;95607.84;4408151;32;20192;-63
2023/10/12 06:04:22;;;;;;;0.93;0.87;;;;;;;17.30;67.61;95615.22;4388541;32;20228;-63
2023/10/12 06:06:51;;;;;;;1.57;1.47;;;;;;;17.31;67.09;95618.69;4415368;32;20183;-63
2023/10/12 06:09:23;;;;;;;1.20;1.20;;;;;;;17.31;68.04;95614.12;4415234;32;20221;-63
2023/10/12 06:11:51;;;;;;;1.10;1.10;;;;;;;17.29;67.76;95616.34;4414034;32;20183;-63
2023/10/12 06:14:21;;;;;;;1.10;1.10;;;;;;;17.33;68.67;95627.19;4374775;32;20188;-62
2023/10/12 06:16:48;;;;;;;1.63;1.13;;;;;;;17.23;67.27;95622.25;4402204;32;20227;-63
2023/10/12 06:19:28;;;;;;;1.10;1.10;;;;;;;17.33;68.86;95627.19;4405418;32;20195;-64
2023/10/12 06:24:44;;;;;;;3.23;1.43;;;;;;;17.33;66.41;95627.19;4407835;32;20283;-63
2023/10/12 06:27:22;;;;;;;0.87;0.87;;;;;;;17.37;69.23;95625.44;4414032;32;20203;-63
2023/10/12 06:29:54;;;;;;;2.67;1.33;;;;;;;17.35;68.68;95623.09;4382596;32;20185;-63
2023/10/12 06:32:33;;;;;;;1.63;1.53;;;;;;;17.42;67.89;95634.06;4401329;32;20226;-63
2023/10/12 06:35:13;;;;;;;1.50;1.13;;;;;;;17.40;67.93;95644.34;4413148;32;20183;-64
2023/10/12 06:45:51;;;;;;;1.00;1.00;;;;;;;17.42;69.67;95655.53;4407724;32;20196;-64
2023/10/12 06:51:03;;;;;;;1.53;1.43;;;;;;;17.50;70.71;95664.59;4413717;32;20184;-63
2023/10/12 06:53:36;;;;;;;0.77;0.77;;;;;;;17.35;68.08;95663.31;4390200;32;20184;-64
2023/10/12 06:56:27;;;;;;;3.17;1.90;;;;;;;17.40;71.85;95659.66;4415459;32;20246;-63
2023/10/12 07:01:53;;;;;;;1.90;1.80;;;;;;;17.40;73.39;95659.66;4398940;32;20213;-63
2023/10/12 07:04:27;;;;;;;1.43;1.37;;;;;;;17.28;67.78;95659.56;4399340;32;20211;-63
2023/10/12 07:09:48;;;;;;;1.03;1.03;;;;;;;17.20;66.75;95663.91;4343806;32;20237;-61
2023/10/12 07:12:19;;;;;;;0.90;0.90;;;;;;;17.21;67.28;95667.38;4409333;32;20199;-64
2023/10/12 07:14:53;;;;;;;1.30;1.10;;;;;;;17.35;66.16;95673.25;4415465;32;20204;-62
2023/10/12 07:17:27;;;;;;;11.17;2.00;;;;;;;17.29;67.55;95680.72;4417616;32;20189;-62
2023/10/12 07:19:55;;;;;;;1.20;1.20;;;;;;;17.38;64.93;95676.06;4390553;32;20179;-62
2023/10/12 07:22:22;;;;;;;0.80;0.80;;;;;;;17.43;63.97;95686.63;4401443;32;20235;-62
2023/10/12 07:24:53;;;;;;;1.07;1.07;;;;;;;17.41;63.76;95677.31;4405191;32;20191;-63
2023/10/12 07:27:19;;;;;;;1.80;1.27;;;;;;;17.44;64.01;95685.50;4394172;32;20176;-63
2023/10/12 07:29:47;;;;;;;0.90;0.90;;;;;;;17.37;65.91;95687.13;4410443;32;20200;-63
2023/10/12 07:35:07;;;;;;;1.43;1.33;;;;;;;17.30;67.09;95690.31;4406167;32;20229;-63
2023/10/12 07:37:41;;;;;;;0.87;0.87;;;;;;;17.40;68.21;95686.47;4412740;32;20222;-63
2023/10/12 07:40:23;;;;;;;1.30;1.30;;;;;;;17.42;69.02;95686.94;4407936;32;20186;-64
2023/10/12 07:42:50;;;;;;;1.73;1.63;;;;;;;17.51;67.13;95687.63;4415951;32;20199;-63
2023/10/12 07:45:18;;;;;;;1.20;1.10;;;;;;;17.57;68.20;95678.28;4416272;32;20203;-63
2023/10/12 07:47:58;;;;;;;4.07;2.53;;;;;;;17.87;68.41;95683.59;4413333;32;20287;-63
2023/10/12 07:50:25;;;;;;;3.23;1.73;;;;;;;18.20;70.23;95678.97;4414244;32;20218;-62
2023/10/12 07:53:06;;;;;;;1.43;1.33;;;;;;;18.36;67.35;95679.09;4414285;32;20196;-63
2023/10/12 07:55:32;;;;;;;1.60;1.50;;;;;;;18.40;66.99;95682.69;4400991;32;20258;-62
2023/10/12 07:58:02;;;;;;;1.33;1.30;;;;;;;18.45;66.46;95680.59;4413829;32;20240;-62
2023/10/12 08:15:59;;;;;;;1.10;0.80;;;;;;;18.92;64.45;95692.81;4408447;32;20180;-64
2023/10/12 08:21:38;;;;;;;1.20;1.13;;;;;;;19.00;64.99;95687.34;4405101;32;20180;-64
2023/10/12 08:45:51;;;;;;;2.50;1.90;;;;;;;20.30;63.10;95682.56;4414366;32;20206;-65
2023/10/12 08:48:19;;;;;;;4.80;1.93;;;;;;;20.33;61.01;95685.34;4415169;32;20182;-65
2023/10/12 08:50:58;;;;;;;2.00;1.53;;;;;;;20.33;61.36;95682.66;4415683;32;20172;-65
2023/10/12 08:53:26;;;;;;;1.60;0.90;;;;;;;20.41;62.90;95679.00;4401481;32;20184;-64
2023/10/12 08:55:52;;;;;;;1.70;1.60;;;;;;;20.33;59.87;95671.09;4409015;32;20219;-62
2023/10/12 08:58:46;;;;;;;1.10;1.10;;;;;;;20.37;61.90;95677.38;4416500;32;20188;-62
2023/10/12 09:01:23;;;;;;;0.83;0.83;;;;;;;20.28;57.87;95674.81;4382592;32;20267;-63
2023/10/12 09:03:53;;;;;;;0.87;0.87;;;;;;;20.24;57.47;95666.63;4400663;32;20218;-63
2023/10/12 09:06:29;;;;;;;4.43;1.43;;;;;;;20.14;57.38;95669.06;4411312;32;20188;-63
2023/10/12 09:08:57;;;;;;;1.80;1.70;;;;;;;20.05;59.68;95663.81;4404826;32;20188;-62
2023/10/12 09:11:29;;;;;;;0.67;0.67;;;;;;;19.97;58.53;95655.87;4409705;32;20184;-63
2023/10/12 09:13:57;;;;;;;0.90;0.90;;;;;;;19.93;58.43;95649.66;4415406;32;20202;-62
2023/10/12 09:16:26;;;;;;;1.27;0.93;;;;;;;19.94;58.49;95654.69;4414827;32;20184;-62
2023/10/12 09:19:00;;;;;;;0.60;0.60;;;;;;;19.95;58.87;95648.19;4414839;32;20184;-61
2023/10/12 09:21:42;;;;;;;1.07;1.00;;;;;;;19.94;59.09;95645.84;4403595;32;20210;-61
2023/10/12 09:24:21;;;;;;;0.97;0.97;;;;;;;19.93;59.56;95645.06;4415067;32;20179;-63
2023/10/12 09:26:58;;;;;;;3.37;2.07;;;;;;;20.02;58.79;95647.56;4404576;32;20188;-63
2023/10/12 09:29:27;;;;;;;0.90;0.90;;;;;;;20.00;59.16;95647.13;4404257;32;20231;-63
2023/10/12 09:32:33;;;;;;;0.73;0.73;;;;;;;20.02;58.64;95639.47;4414060;32;20176;-62
2023/10/12 09:37:45;;;;;;;0.77;0.77;;;;;;;20.01;58.79;95637.91;4415576;32;20198;-63
2023/10/12 09:43:17;;;;;;;1.63;1.17;;;;;;;20.04;58.98;95642.63;4341242;32;20192;-63
2023/10/12 09:45:45;;;;;;;0.50;0.50;;;;;;;20.06;59.94;95640.38;4363490;32;20257;-64
2023/10/12 09:48:19;;;;;;;2.30;0.90;;;;;;;20.15;59.00;95635.59;4363545;32;20196;-64
2023/10/12 09:50:56;;;;;;;1.90;1.17;;;;;;;20.21;58.47;95634.19;4365183;32;20220;-63
2023/10/12 09:53:58;;;;;;;2.03;1.80;;;;;;;20.28;58.02;95633.59;4381945;32;20313;-63
2023/10/12 09:56:34;;;;;;;1.60;1.17;;;;;;;20.34;57.99;95626.84;4347717;32;20180;-63
2023/10/12 09:59:13;;;;;;;0.90;0.90;;;;;;;20.37;58.86;95626.19;4342728;32;20235;-63
2023/10/12 10:01:50;;;;;;;0.70;0.70;;;;;;;20.37;59.07;95624.22;4321952;32;20303;-63
2023/10/12 10:07:35;;;;;;;2.13;1.27;;;;;;;20.50;58.11;95628.41;4349963;32;20235;-63
2023/10/12 10:10:08;;;;;;;1.10;0.87;;;;;;;20.54;58.14;95618.50;4344639;32;20245;-63
2023/10/12 10:12:52;;;;;;;1.93;1.33;;;;;;;20.57;57.81;95620.50;4371576;32;20188;-63
2023/10/12 10:15:21;;;;;;;0.80;0.80;;;;;;;20.61;57.83;95635.97;4365753;32;20226;-63
2023/10/12 10:18:16;;;;;;;1.43;1.00;;;;;;;20.78;58.66;95622.12;4377372;32;20245;-63
2023/10/12 10:21:01;;;;;;;0.53;0.53;;;;;;;20.91;58.21;95632.44;4386602;32;20196;-63
2023/10/12 10:23:37;;;;;;;0.73;0.73;;;;;;;20.97;56.69;95634.88;4389914;32;20265;-63
2023/10/12 10:26:30;;;;;;;1.90;1.37;;;;;;;21.24;55.93;95617.75;4396729;32;20192;-62
2023/10/12 10:29:05;;;;;;;0.90;0.90;;;;;;;21.34;54.10;95624.53;4396177;32;20246;-63
2023/10/12 10:31:36;;;;;;;0.57;0.57;;;;;;;21.34;54.19;95633.41;4409684;32;20210;-60
2023/10/12 10:34:06;;;;;;;0.60;0.60;;;;;;;21.39;54.75;95624.25;4388944;32;20204;-60
2023/10/12 10:36:34;;;;;;;0.60;0.60;;;;;;;21.54;52.59;95628.78;4360454;32;20192;-59
2023/10/12 10:41:46;;;;;;;1.27;1.17;;;;;;;21.66;52.13;95620.53;4378418;32;20241;-60
2023/10/12 10:44:21;;;;;;;1.23;1.10;;;;;;;21.72;52.23;95621.81;4394211;32;20241;-60
2023/10/12 10:49:36;;;;;;;0.97;0.97;;;;;;;21.77;51.13;95624.22;4378005;32;20236;-59
2023/10/12 10:52:26;;;;;;;2.87;1.50;;;;;;;21.95;51.02;95622.62;4410488;32;20196;-60
2023/10/12 10:54:59;;;;;;;1.37;1.27;;;;;;;21.99;51.04;95614.59;4406782;32;20228;-60
2023/10/12 10:57:25;;;;;;;0.73;0.73;;;;;;;22.20;49.47;95620.41;4408658;32;20208;-59
2023/10/12 10:59:52;;;;;;;0.90;0.90;;;;;;;22.25;48.74;95622.00;4393899;32;20214;-59
2023/10/12 11:02:22;;;;;;;1.13;1.13;;;;;;;22.21;48.63;95623.91;4390395;32;20249;-60
2023/10/12 11:04:55;;;;;;;1.43;1.27;;;;;;;22.34;48.82;95609.03;4406059;32;20212;-60
2023/10/12 11:07:21;;;;;;;1.60;1.50;;;;;;;22.29;48.39;95603.94;4396951;32;20203;-60
2023/10/12 11:12:20;;;;;;;0.50;0.50;;;;;;;22.25;50.16;95590.34;4370944;32;20184;-60
2023/10/12 11:17:49;;;;;;;0.80;0.80;;;;;;;22.42;48.02;95589.09;4357121;32;20211;-60
2023/10/12 11:20:27;;;;;;;1.17;1.07;;;;;;;22.44;47.16;95581.41;4375661;32;20200;-60
2023/10/12 11:23:07;;;;;;;0.67;0.67;;;;;;;22.48;48.07;95582.22;4388696;32;20250;-59
2023/10/12 11:26:07;;;;;;;0.97;0.93;;;;;;;22.42;47.67;95588.31;4376624;32;20192;-62
2023/10/12 11:28:39;;;;;;;0.50;0.50;;;;;;;22.48;46.97;95594.97;4403418;32;20203;-60
2023/10/12 11:31:30;;;;;;;1.37;1.27;;;;;;;22.48;47.11;95592.25;4393367;32;20210;-58
2023/10/12 11:34:00;;;;;;;0.90;0.90;;;;;;;22.36;47.24;95597.88;4376670;32;20276;-59
2023/10/12 11:36:28;;;;;;;13.60;1.07;;;;;;;22.50;46.76;95595.37;4406417;32;20194;-59
2023/10/12 11:39:03;;;;;;;1.53;1.43;;;;;;;22.53;47.05;95590.03;4381860;32;20291;-59
2023/10/12 11:41:29;;;;;;;1.00;1.00;;;;;;;22.55;47.10;95582.34;4373481;32;20202;-59
2023/10/12 11:44:05;;;;;;;1.20;0.80;;;;;;;22.55;46.64;95585.03;4390819;32;20298;-59
2023/10/12 11:46:49;;;;;;;1.17;1.17;;;;;;;22.37;48.08;95586.69;4337889;32;20188;-59
2023/10/12 11:49:15;;;;;;;0.43;0.43;;;;;;;22.50;47.37;95582.63;4392423;32;20192;-59
2023/10/12 11:51:57;;;;;;;3.20;0.83;;;;;;;22.55;46.75;95570.75;4388323;32;20211;-59
2023/10/12 11:54:33;;;;;;;0.73;0.73;;;;;;;22.54;46.98;95574.59;4396448;32;20301;-60
2023/10/12 11:57:03;;;;;;;2.03;1.10;;;;;;;22.44;47.97;95565.19;4386218;32;20188;-59
2023/10/12 11:59:35;;;;;;;2.67;1.23;;;;;;;22.47;47.95;95560.94;4341900;32;20185;-60
2023/10/12 12:02:08;;;;;;;3.30;1.43;;;;;;;22.63;47.87;95572.41;4396109;32;20219;-60
2023/10/12 12:04:41;;;;;;;1.53;1.53;;;;;;;22.61;46.80;95559.25;4373017;32;20237;-59
2023/10/12 12:07:10;;;;;;;1.60;1.17;;;;;;;22.62;46.90;95560.81;4389601;32;20237;-59
2023/10/12 12:09:39;;;;;;;1.23;1.23;;;;;;;22.74;46.54;95561.75;4369632;32;20211;-59
2023/10/12 12:12:12;;;;;;;2.70;1.37;;;;;;;22.66;47.91;95562.78;4377249;32;20196;-61
2023/10/12 12:14:46;;;;;;;0.70;0.70;;;;;;;22.59;47.80;95560.75;4372388;32;20192;-60
2023/10/12 12:17:15;;;;;;;0.80;0.80;;;;;;;22.49;48.40;95559.44;4374486;32;20188;-59
2023/10/12 12:19:42;;;;;;;0.97;0.97;;;;;;;22.52;48.48;95555.25;4361126;32;20264;-59
2023/10/12 12:22:13;;;;;;;1.17;0.97;;;;;;;22.45;48.04;95553.19;4398472;32;20239;-59
2023/10/12 12:24:44;;;;;;;5.43;1.13;;;;;;;22.41;48.29;95546.97;4403263;32;20206;-59
2023/10/12 12:29:57;;;;;;;2.53;1.20;;;;;;;22.54;46.65;95552.94;4393218;32;20232;-59
2023/10/12 12:32:26;;;;;;;1.17;1.17;;;;;;;22.49;47.00;95537.81;4388265;32;20295;-59
2023/10/12 12:34:56;;;;;;;0.93;0.80;;;;;;;22.50;45.73;95558.31;4406465;32;20294;-59
2023/10/12 12:37:22;;;;;;;0.90;0.90;;;;;;;22.49;45.80;95562.16;4388003;32;20196;-59
2023/10/12 12:42:44;;;;;;;0.50;0.50;;;;;;;22.49;46.75;95561.38;4331630;32;20279;-59
2023/10/12 12:45:11;;;;;;;1.53;1.43;;;;;;;22.62;46.78;95555.41;4334931;32;20201;-59
2023/10/12 12:47:37;;;;;;;0.67;0.67;;;;;;;22.57;46.38;95554.94;4321346;32;20190;-58
2023/10/12 12:50:05;;;;;;;2.00;1.07;;;;;;;22.60;46.11;95556.91;4323476;32;20227;-58
2023/10/12 12:52:38;;;;;;;0.73;0.73;;;;;;;22.58;46.81;95553.78;4306376;32;20186;-58
2023/10/12 12:55:16;;;;;;;0.80;0.80;;;;;;;22.63;46.16;95554.25;4381555;32;20200;-59
2023/10/12 12:57:42;;;;;;;1.10;1.10;;;;;;;22.74;45.25;95559.03;4391284;32;20203;-59
2023/10/12 13:00:21;;;;;;;2.17;1.37;;;;;;;22.74;45.72;95551.69;4393376;32;20215;-59
2023/10/12 13:02:48;;;;;;;1.27;1.27;;;;;;;22.69;45.88;95559.34;4405519;32;20188;-59
2023/10/12 13:05:15;;;;;;;1.03;1.03;;;;;;;22.62;45.53;95565.44;4400664;32;20252;-59
2023/10/12 13:07:46;;;;;;;1.37;1.27;;;;;;;22.74;45.50;95559.81;4395694;32;20241;-59
2023/10/12 13:10:14;;;;;;;0.70;0.70;;;;;;;22.70;45.66;95558.19;4383414;32;20247;-61
2023/10/12 13:12:41;;;;;;;0.80;0.80;;;;;;;22.67;45.27;95562.41;4384336;32;20233;-59
2023/10/12 13:15:10;;;;;;;0.50;0.50;;;;;;;22.47;46.38;95559.03;4381908;32;20276;-59
2023/10/12 13:17:40;;;;;;;1.00;0.90;;;;;;;22.39;47.14;95565.50;4381153;32;20200;-59
2023/10/12 13:20:18;;;;;;;1.00;1.00;;;;;;;22.32;46.77;95568.06;4400368;32;20210;-59
2023/10/12 13:22:45;;;;;;;0.60;0.60;;;;;;;22.29;47.64;95558.75;4405897;32;20247;-59
2023/10/12 13:25:14;;;;;;;0.90;0.90;;;;;;;22.31;47.54;95566.50;4406098;32;20197;-59
2023/10/12 13:27:41;;;;;;;2.33;1.17;;;;;;;22.40;47.05;95558.94;4399937;32;20196;-59
2023/10/12 13:30:11;;;;;;;0.93;0.93;;;;;;;22.41;47.15;95559.72;4371114;32;20202;-59
2023/10/12 13:32:37;;;;;;;0.60;0.60;;;;;;;22.34;47.86;95570.41;4390737;32;20207;-62
2023/10/12 13:35:18;;;;;;;1.47;1.47;;;;;;;22.29;48.37;95574.97;4399464;32;20244;-59
2023/10/12 13:37:46;;;;;;;0.30;0.30;;;;;;;22.34;47.39;95562.31;4390784;32;20259;-60
2023/10/12 13:40:17;;;;;;;1.37;1.20;;;;;;;22.30;47.50;95570.34;4376078;32;20227;-60
2023/10/12 13:42:44;;;;;;;1.20;1.10;;;;;;;22.22;48.53;95569.47;4405976;32;20208;-59
2023/10/12 13:45:21;;;;;;;0.60;0.60;;;;;;;22.22;48.55;95560.59;4373251;32;20261;-60
2023/10/12 13:47:47;;;;;;;0.87;0.87;;;;;;;22.19;48.23;95558.59;4369029;32;20249;-59
2023/10/12 13:50:14;;;;;;;0.87;0.87;;;;;;;22.23;47.48;95554.03;4387904;32;20231;-60
2023/10/12 13:52:41;;;;;;;1.27;1.00;;;;;;;22.27;48.49;95550.22;4393333;32;20210;-59
2023/10/12 13:55:11;;;;;;;1.50;1.13;;;;;;;22.27;47.75;95560.25;4383089;32;20211;-59
2023/10/12 13:57:50;;;;;;;1.90;1.03;;;;;;;22.22;48.24;95555.97;4395673;32;20263;-61
2023/10/12 14:00:27;;;;;;;1.67;1.07;;;;;;;22.17;48.80;95552.78;4379917;32;20184;-59
2023/10/12 14:02:58;;;;;;;0.90;0.90;;;;;;;22.13;49.40;95555.41;4361831;32;20234;-59
2023/10/12 14:05:27;;;;;;;0.97;0.97;;;;;;;22.09;49.44;95551.88;4397181;32;20295;-59
2023/10/12 14:07:58;;;;;;;0.87;0.80;;;;;;;22.11;48.38;95546.88;4386110;32;20231;-59
2023/10/12 14:10:26;;;;;;;0.57;0.57;;;;;;;22.15;48.20;95552.34;4379705;32;20317;-59
2023/10/12 14:12:59;;;;;;;1.40;0.93;;;;;;;22.16;48.44;95545.81;4387065;32;20192;-59
2023/10/12 14:15:28;;;;;;;0.63;0.63;;;;;;;22.21;46.71;95535.47;4406230;32;20192;-59
2023/10/12 14:17:59;;;;;;;1.97;1.20;;;;;;;22.19;45.79;95545.09;4389991;32;20314;-59
2023/10/12 14:20:26;;;;;;;0.57;0.57;;;;;;;22.11;47.07;95551.50;4382976;32;20266;-59
2023/10/12 14:22:57;;;;;;;1.73;1.63;;;;;;;22.19;44.88;95559.38;4402982;32;20192;-59
2023/10/12 14:25:30;;;;;;;1.00;1.00;;;;;;;22.16;44.75;95545.81;4388187;32;22340;-59
2023/10/12 14:27:59;;;;;;;11.13;1.13;;;;;;;22.11;45.71;95546.88;4402295;32;20256;-60
2023/10/12 14:30:30;;;;;;;1.57;1.47;;;;;;;22.10;46.39;95555.34;4374381;32;20184;-59
2023/10/12 14:33:06;;;;;;;2.87;1.30;;;;;;;22.05;46.19;95536.72;4399728;32;20210;-59
2023/10/12 14:35:46;;;;;;;1.00;1.00;;;;;;;22.10;46.51;95550.72;4411561;32;20198;-60
2023/10/12 14:38:18;;;;;;;1.10;0.90;;;;;;;22.07;46.06;95548.75;4391583;32;20202;-60
2023/10/12 14:40:50;;;;;;;1.60;1.50;;;;;;;22.10;45.94;95548.03;4397760;32;20199;-60